Time;durP1;ratioP1;P1;durP2;ratioP2;P2;SDS_P1;SDS_P2;PMS_P1;PMS_P2;Temp;Humidity;BMP_temperature;BMP_pressure;BME280_temperature;BME280_humidity;BME280_pressure;Samples;Min_cycle;Max_cycle;Signal;HPM_P1;HPM_P2
2022/05/01 00:01:41;;;;;;;13.30;8.43;;;;;;;11.32;98.90;99391.53;4993582;28;20282;-86
2022/05/01 00:04:07;;;;;;;11.60;8.70;;;;;;;12.20;98.95;99531.22;4980516;28;20188;-86
2022/05/01 00:06:33;;;;;;;12.00;8.50;;;;;;;12.59;98.49;99614.81;4975340;28;20314;-86
2022/05/01 00:09:00;;;;;;;14.17;9.00;;;;;;;13.32;99.39;99717.66;4975246;28;20164;-87
2022/05/01 00:11:26;;;;;;;14.70;9.47;;;;;;;11.71;99.88;99471.72;4975501;28;20955;-86
2022/05/01 00:13:51;;;;;;;16.40;11.00;;;;;;;13.28;100.00;99731.94;5000602;28;20270;-86
2022/05/01 00:16:17;;;;;;;15.13;10.87;;;;;;;11.25;100.00;99441.09;4993433;28;20255;-86
2022/05/01 00:18:42;;;;;;;16.93;11.80;;;;;;;12.46;100.00;99640.56;4994615;28;20160;-86
2022/05/01 00:21:08;;;;;;;16.00;11.90;;;;;;;12.51;100.00;99657.69;4994578;28;20174;-86
2022/05/01 00:23:34;;;;;;;16.43;11.90;;;;;;;12.55;100.00;99654.50;4984129;28;20211;-87
2022/05/01 00:26:02;;;;;;;16.53;11.47;;;;;;;11.36;100.00;99432.25;4978732;28;20267;-86
2022/05/01 00:28:29;;;;;;;18.33;11.80;;;;;;;13.47;100.00;99784.34;4981779;28;20274;-87
2022/05/01 00:30:56;;;;;;;15.37;11.57;;;;;;;11.06;100.00;99339.78;4974945;28;20160;-87
2022/05/01 00:38:49;;;;;;;15.73;11.70;;;;;;;13.09;100.00;99711.69;4981370;28;20199;-89
2022/05/01 00:41:15;;;;;;;16.27;11.80;;;;;;;12.71;100.00;99651.75;4995013;28;20259;-88
2022/05/01 00:44:00;;;;;;;16.50;11.50;;;;;;;13.50;100.00;99792.97;5004790;28;20183;-89
2022/05/01 00:46:26;;;;;;;14.63;11.37;;;;;;;13.35;100.00;99787.28;4998438;28;20177;-89
2022/05/01 00:48:52;;;;;;;14.93;11.17;;;;;;;13.43;100.00;99803.72;5000223;28;20199;-89
2022/05/01 00:51:20;;;;;;;17.30;11.43;;;;;;;12.95;100.00;99718.75;4983066;28;20198;-89
2022/05/01 00:53:47;;;;;;;17.27;11.80;;;;;;;13.42;100.00;99806.22;4981258;28;20160;-88
2022/05/01 00:56:13;;;;;;;15.63;11.83;;;;;;;13.38;100.00;99817.94;4979581;28;20168;-88
2022/05/01 00:58:40;;;;;;;15.07;12.47;;;;;;;11.86;100.00;99529.84;4999625;28;20168;-89
2022/05/01 01:01:05;;;;;;;17.30;12.33;;;;;;;12.04;100.00;99572.03;5000590;28;20235;-88
2022/05/01 01:03:31;;;;;;;16.63;11.87;;;;;;;12.11;100.00;99574.03;5007968;28;20179;-88
2022/05/01 01:05:56;;;;;;;15.87;12.07;;;;;;;10.63;100.00;99319.41;5018790;28;20198;-88
2022/05/01 01:08:22;;;;;;;15.77;11.70;;;;;;;11.68;100.00;99505.41;4996235;28;20219;-88
2022/05/01 01:10:47;;;;;;;17.00;11.67;;;;;;;11.81;100.00;99527.97;4989596;28;20179;-89
2022/05/01 01:13:12;;;;;;;18.20;12.37;;;;;;;12.04;100.00;99555.94;4980869;28;20152;-89
2022/05/01 01:15:38;;;;;;;16.67;12.47;;;;;;;12.65;100.00;99714.13;4979919;28;20232;-89
2022/05/01 01:18:04;;;;;;;18.43;12.90;;;;;;;10.41;100.00;99322.72;5011012;28;20187;-89
2022/05/01 01:20:31;;;;;;;16.80;12.87;;;;;;;10.70;100.00;99396.50;4998610;28;20237;-89
2022/05/01 01:22:58;;;;;;;18.67;12.50;;;;;;;8.57;100.00;99029.78;4999498;28;20187;-88
2022/05/01 01:25:27;;;;;;;17.20;12.77;;;;;;;8.23;100.00;98989.56;5001267;28;20166;-88
2022/05/01 01:27:56;;;;;;;18.10;13.30;;;;;;;12.53;100.00;99772.91;4987682;28;20679;-87
2022/05/01 01:33:07;;;;;;;19.57;12.57;;;;;;;12.61;100.00;99758.84;4979511;28;20167;-88
2022/05/01 01:35:35;;;;;;;20.83;12.70;;;;;;;12.66;100.00;99753.97;4980401;28;20168;-88
2022/05/01 01:38:01;;;;;;;21.03;12.70;;;;;;;10.87;100.00;99463.94;4995556;28;20200;-88
2022/05/01 01:40:37;;;;;;;16.03;12.13;;;;;;;12.38;100.00;99717.28;4998264;28;20172;-88
2022/05/01 01:43:05;;;;;;;21.40;12.43;;;;;;;11.86;100.00;99631.31;4999731;28;20913;-89
2022/05/01 01:45:31;;;;;;;18.80;12.83;;;;;;;10.70;100.00;99442.06;4999974;28;20171;-89
2022/05/01 01:48:11;;;;;;;18.83;12.80;;;;;;;10.47;100.00;99425.88;4985093;28;20179;-88
2022/05/01 01:50:37;;;;;;;18.77;12.60;;;;;;;12.50;100.00;99756.69;4975954;28;20168;-89
2022/05/01 01:53:03;;;;;;;16.57;12.23;;;;;;;11.39;100.00;99588.66;4978583;28;20167;-89
2022/05/01 01:55:33;;;;;;;16.87;12.40;;;;;;;10.15;100.00;99380.56;4992455;28;20176;-87
2022/05/01 01:57:59;;;;;;;18.17;13.20;;;;;;;12.27;100.00;99750.66;5006507;28;20567;-88
2022/05/01 02:00:25;;;;;;;18.33;13.40;;;;;;;10.20;100.00;99432.22;4997992;28;20159;-88
2022/05/01 02:03:10;;;;;;;25.63;12.77;;;;;;;9.11;100.00;99210.66;4997835;28;20195;-88
2022/05/01 02:05:36;;;;;;;20.13;13.93;;;;;;;9.75;100.00;99333.22;4997515;28;20191;-88
2022/05/01 02:08:02;;;;;;;21.43;14.00;;;;;;;12.12;100.00;99738.16;4997603;28;20782;-89
2022/05/01 02:10:28;;;;;;;20.17;14.10;;;;;;;8.76;100.00;99180.41;4999049;28;20222;-88
2022/05/01 02:12:54;;;;;;;23.80;15.70;;;;;;;9.46;100.00;99290.59;4998949;28;20171;-87
2022/05/01 02:15:20;;;;;;;23.17;15.43;;;;;;;10.21;100.00;99444.09;4993205;28;20184;-88
2022/05/01 02:17:48;;;;;;;25.40;16.67;;;;;;;9.51;100.00;99321.97;4978328;28;20165;-88
2022/05/01 02:20:14;;;;;;;22.90;15.67;;;;;;;8.88;100.00;99305.50;4983924;28;20148;-88
2022/05/01 02:22:40;;;;;;;22.73;15.90;;;;;;;9.94;100.00;99461.38;4985141;28;20667;-89
2022/05/01 02:25:15;;;;;;;20.83;15.00;;;;;;;9.76;100.00;99465.53;4982752;28;20181;-88
2022/05/01 02:27:41;;;;;;;24.27;15.90;;;;;;;10.26;100.00;99538.78;4998582;28;20170;-89
2022/05/01 02:30:08;;;;;;;22.47;15.27;;;;;;;11.36;100.00;99708.53;4997959;28;20553;-89
2022/05/01 02:32:36;;;;;;;23.13;15.27;;;;;;;9.16;100.00;99368.31;4997858;28;20191;-89
2022/05/01 02:35:02;;;;;;;26.83;15.30;;;;;;;7.47;100.00;99074.88;4994642;28;21829;-89
2022/05/01 02:37:27;;;;;;;21.43;14.60;;;;;;;8.65;100.00;99295.94;4978515;28;20243;-88
2022/05/01 02:39:52;;;;;;;20.57;14.47;;;;;;;8.72;100.00;99328.28;4977999;28;20711;-89
2022/05/01 02:42:19;;;;;;;21.10;14.07;;;;;;;9.32;100.00;99422.97;4993677;28;20274;-88
2022/05/01 02:44:44;;;;;;;21.20;14.03;;;;;;;7.52;100.00;99112.09;4983397;28;20167;-88
2022/05/01 02:47:11;;;;;;;20.13;13.33;;;;;;;9.02;100.00;99365.91;5000666;28;20184;-89
2022/05/01 02:49:37;;;;;;;21.20;13.27;;;;;;;7.61;100.00;99119.22;5013027;28;20562;-88
2022/05/01 02:52:03;;;;;;;20.67;13.40;;;;;;;7.85;100.00;99180.94;5012979;28;20163;-88
2022/05/01 02:54:28;;;;;;;17.43;12.57;;;;;;;7.46;100.00;99099.19;4986100;28;20180;-89
2022/05/01 02:56:54;;;;;;;18.07;12.33;;;;;;;7.34;100.00;99073.34;4976561;28;20250;-89
2022/05/01 02:59:20;;;;;;;17.43;11.70;;;;;;;9.08;100.00;99397.38;4978085;28;20172;-88
2022/05/01 03:01:45;;;;;;;17.53;11.50;;;;;;;11.05;100.00;99701.19;4992619;28;20184;-89
2022/05/01 03:04:11;;;;;;;18.13;12.03;;;;;;;8.85;100.00;99343.22;4999790;28;20194;-89
2022/05/01 03:06:37;;;;;;;17.50;12.03;;;;;;;11.09;100.00;99707.28;4996439;28;20226;-89
2022/05/01 03:09:04;;;;;;;18.20;12.10;;;;;;;11.52;100.00;99760.78;4996560;28;20167;-89
2022/05/01 03:11:29;;;;;;;17.50;11.80;;;;;;;8.75;100.00;99287.19;4995230;28;20186;-89
2022/05/01 03:13:55;;;;;;;16.97;12.30;;;;;;;9.96;100.00;99490.97;4977181;28;20179;-89
2022/05/01 03:16:20;;;;;;;18.70;12.40;;;;;;;7.98;100.00;99152.16;4977474;28;20160;-88
2022/05/01 03:24:17;;;;;;;24.27;14.63;;;;;;;10.17;100.00;99573.75;5005885;28;20198;-88
2022/05/01 03:26:43;;;;;;;23.40;14.63;;;;;;;11.32;100.00;99751.44;5017282;28;20152;-86
2022/05/01 03:29:11;;;;;;;20.47;14.27;;;;;;;10.25;100.00;99587.63;5011464;28;20164;-89
2022/05/01 03:31:37;;;;;;;20.57;14.13;;;;;;;9.05;100.00;99396.34;4995337;28;20163;-88
2022/05/01 03:34:04;;;;;;;21.03;15.03;;;;;;;9.67;100.00;99520.72;4994849;28;20179;-88
2022/05/01 03:36:29;;;;;;;21.37;14.33;;;;;;;11.32;100.00;99764.94;4996957;28;20174;-89
2022/05/01 03:38:55;;;;;;;20.60;13.43;;;;;;;9.41;100.00;99431.88;4996365;28;20195;-88
2022/05/01 03:41:20;;;;;;;21.23;13.80;;;;;;;10.55;100.00;99630.44;4997111;28;20167;-89
2022/05/01 03:43:46;;;;;;;22.60;13.73;;;;;;;10.99;100.00;99705.97;4995708;28;20171;-88
2022/05/01 03:46:11;;;;;;;19.93;14.13;;;;;;;10.60;100.00;99671.19;4996610;28;20190;-89
2022/05/01 03:48:36;;;;;;;24.37;14.57;;;;;;;10.56;100.00;99646.50;4999547;28;20171;-88
2022/05/01 03:51:02;;;;;;;21.23;14.27;;;;;;;9.64;100.00;99475.91;5000143;28;20171;-89
2022/05/01 03:53:29;;;;;;;20.00;14.00;;;;;;;9.69;100.00;99476.16;4984862;28;20640;-89
2022/05/01 03:55:55;;;;;;;19.67;13.63;;;;;;;11.53;100.00;99770.16;4979857;28;20164;-88
2022/05/01 03:58:21;;;;;;;18.07;13.23;;;;;;;9.69;100.00;99540.22;4981802;28;20156;-88
2022/05/01 04:00:47;;;;;;;21.47;14.27;;;;;;;6.59;100.00;99079.44;4995458;28;20174;-88
2022/05/01 04:03:16;;;;;;;20.67;13.73;;;;;;;9.22;100.00;99531.94;4995097;28;20221;-89
2022/05/01 04:05:42;;;;;;;23.50;14.97;;;;;;;7.57;100.00;99288.63;5000758;28;20186;-89
2022/05/01 04:08:08;;;;;;;24.50;14.90;;;;;;;8.52;100.00;99386.97;4996715;28;20187;-89
2022/05/01 04:10:38;;;;;;;23.83;14.83;;;;;;;10.15;100.00;99618.34;4997798;28;20187;-89
2022/05/01 04:13:04;;;;;;;25.03;17.90;;;;;;;9.39;100.00;99457.84;5004270;28;20248;-89
2022/05/01 04:15:30;;;;;;;29.40;17.17;;;;;;;7.43;100.00;99100.66;4991649;28;20539;-89
2022/05/01 04:17:56;;;;;;;25.97;17.50;;;;;;;7.59;100.00;99118.28;5001184;28;20600;-89
2022/05/01 04:20:22;;;;;;;24.73;17.27;;;;;;;8.16;100.00;99219.47;5003047;28;20175;-89
2022/05/01 04:22:48;;;;;;;46.37;30.83;;;;;;;7.39;100.00;99086.19;4999806;28;20710;-89
2022/05/01 04:25:20;;;;;;;34.30;21.73;;;;;;;8.81;100.00;99370.78;5000572;28;20171;-89
2022/05/01 04:27:49;;;;;;;30.60;20.50;;;;;;;7.42;100.00;99103.97;5004702;28;20167;-88
2022/05/01 04:30:16;;;;;;;27.07;18.70;;;;;;;7.30;100.00;99086.59;4991191;28;20683;-88
2022/05/01 04:33:09;;;;;;;30.73;19.97;;;;;;;10.79;100.00;99747.22;4987395;28;20171;-86
2022/05/01 04:35:44;;;;;;;29.00;17.97;;;;;;;11.23;100.00;99784.81;4987204;28;20160;-89
2022/05/01 04:38:12;;;;;;;30.90;19.67;;;;;;;6.57;100.00;98980.41;4988370;28;20171;-88
2022/05/01 04:40:41;;;;;;;30.03;18.63;;;;;;;7.26;100.00;99064.56;5008265;28;20222;-89
2022/05/01 04:43:17;;;;;;;31.87;18.57;;;;;;;7.59;100.00;99136.78;5011416;28;20195;-88
2022/05/01 04:45:43;;;;;;;24.73;16.27;;;;;;;8.87;100.00;99386.22;5023104;28;20170;-89
2022/05/01 04:48:10;;;;;;;29.73;17.60;;;;;;;7.48;100.00;99126.94;5043351;28;20171;-86
2022/05/01 04:50:37;;;;;;;24.87;16.80;;;;;;;11.48;100.00;99790.19;4990980;28;20243;-92
2022/05/01 04:53:06;;;;;;;23.13;15.77;;;;;;;7.71;100.00;99202.03;5004814;28;20176;-89
2022/05/01 04:55:32;;;;;;;27.53;17.33;;;;;;;9.13;100.00;99498.63;4989821;28;20175;-89
2022/05/01 04:57:58;;;;;;;28.93;17.40;;;;;;;6.52;100.00;99013.72;5001418;28;20231;-88
2022/05/01 05:00:25;;;;;;;28.67;16.93;;;;;;;7.84;100.00;99186.75;5008071;28;20179;-88
2022/05/01 05:02:52;;;;;;;25.40;16.27;;;;;;;7.45;100.00;99073.91;5008162;28;20222;-89
2022/05/01 05:05:19;;;;;;;25.00;16.67;;;;;;;7.71;100.00;99071.91;5005914;28;20198;-89
2022/05/01 05:07:45;;;;;;;25.50;16.43;;;;;;;8.69;100.00;99222.13;4991876;28;20291;-89
2022/05/01 05:10:11;;;;;;;24.67;16.30;;;;;;;8.02;100.00;99114.56;4985139;28;20195;-89
2022/05/01 05:12:38;;;;;;;24.20;16.70;;;;;;;9.73;100.00;99376.91;4983758;28;20192;-89
2022/05/01 05:15:08;;;;;;;30.93;20.37;;;;;;;8.61;100.00;99140.16;5001287;28;20179;-88
2022/05/01 05:17:35;;;;;;;34.07;22.50;;;;;;;8.28;100.00;99086.47;4985422;28;20226;-89
2022/05/01 05:20:12;;;;;;;38.10;23.50;;;;;;;12.46;100.00;99795.44;4984047;28;20160;-89
2022/05/01 05:22:41;;;;;;;49.77;24.97;;;;;;;10.89;100.00;99521.44;4982620;28;20231;-90
2022/05/01 05:25:11;;;;;;;39.73;25.10;;;;;;;13.29;100.00;99809.97;4980841;28;20198;-89
2022/05/01 05:27:37;;;;;;;36.67;23.13;;;;;;;13.66;100.00;99813.91;4984030;28;20245;-88
2022/05/01 05:30:04;;;;;;;28.80;18.47;;;;;;;11.88;97.16;99459.72;4998123;28;20171;-89
2022/05/01 05:32:29;;;;;;;30.50;19.40;;;;;;;12.14;96.07;99497.97;4998918;28;20185;-90
2022/05/01 05:34:54;;;;;;;28.50;19.23;;;;;;;11.55;96.25;99400.91;4982206;28;20282;-88
2022/05/01 05:37:20;;;;;;;29.17;18.97;;;;;;;10.30;98.62;99262.34;5000333;28;20198;-89
2022/05/01 05:45:46;;;;;;;27.17;17.10;;;;;;;13.29;100.00;99820.13;5079322;27;20926;-89
2022/05/01 05:48:11;;;;;;;27.80;18.50;;;;;;;12.16;100.00;99610.59;5079354;28;20259;-88
2022/05/01 05:50:37;;;;;;;28.47;18.93;;;;;;;12.10;100.00;99632.31;5080140;28;20169;-89
2022/05/01 05:53:03;;;;;;;27.83;18.87;;;;;;;12.24;100.00;99704.81;5059621;28;20169;-88
2022/05/01 05:55:33;;;;;;;26.57;19.07;;;;;;;10.85;100.00;99458.78;5055858;28;20173;-88
2022/05/01 05:58:02;;;;;;;26.47;19.07;;;;;;;8.52;100.00;99122.06;5058274;28;20299;-89
2022/05/01 06:00:27;;;;;;;28.13;19.43;;;;;;;10.56;100.00;99398.44;5053124;28;20649;-89
2022/05/01 06:02:53;;;;;;;30.03;19.53;;;;;;;11.00;100.00;99459.47;5084370;28;20197;-88
2022/05/01 06:05:18;;;;;;;27.97;18.57;;;;;;;10.99;100.00;99452.66;5059188;28;20201;-86
2022/05/01 06:07:44;;;;;;;36.80;22.67;;;;;;;11.72;100.00;99532.69;5074148;28;20161;-88
2022/05/01 06:10:10;;;;;;;37.23;24.13;;;;;;;12.70;100.00;99659.28;5057345;28;20161;-88
2022/05/01 06:12:42;;;;;;;28.27;18.70;;;;;;;14.25;97.61;99841.56;5069123;28;20168;-87
2022/05/01 06:15:08;;;;;;;22.23;16.87;;;;;;;12.42;96.80;99576.06;5068444;28;20192;-87
2022/05/01 06:17:33;;;;;;;26.77;17.93;;;;;;;13.14;97.59;99674.59;5051750;28;20185;-88
2022/05/01 06:19:59;;;;;;;24.90;17.03;;;;;;;12.27;99.34;99565.34;5054790;28;20561;-88
2022/05/01 06:22:24;;;;;;;23.30;15.87;;;;;;;11.79;98.34;99462.75;5052316;28;20187;-89
2022/05/01 06:24:49;;;;;;;23.80;16.70;;;;;;;12.15;99.64;99487.03;5052422;28;20192;-88
2022/05/01 06:27:15;;;;;;;25.90;16.73;;;;;;;12.06;95.47;99402.94;5068445;28;20661;-86
2022/05/01 06:29:40;;;;;;;24.13;16.03;;;;;;;12.98;90.72;99454.59;5058777;28;20283;-87
2022/05/01 06:32:07;;;;;;;24.10;15.63;;;;;;;14.09;87.57;99613.56;5048631;28;20166;-89
2022/05/01 06:34:35;;;;;;;24.10;15.50;;;;;;;14.06;85.02;99552.38;5057692;28;20169;-86
2022/05/01 06:37:00;;;;;;;20.30;14.40;;;;;;;14.42;83.56;99612.13;5068900;28;20562;-87
2022/05/01 06:39:26;;;;;;;21.23;15.53;;;;;;;14.36;81.31;99591.56;5050713;28;20261;-87
2022/05/01 06:41:51;;;;;;;20.47;14.70;;;;;;;14.17;82.20;99538.31;5052220;28;20175;-86
2022/05/01 06:44:17;;;;;;;23.17;14.20;;;;;;;13.46;80.67;99361.31;5070207;28;20801;-87
2022/05/01 06:46:42;;;;;;;21.23;13.63;;;;;;;16.43;80.46;99852.03;5045137;28;20223;-88
2022/05/01 06:49:08;;;;;;;18.33;13.53;;;;;;;16.00;76.96;99665.22;5058993;28;20185;-88
2022/05/01 06:51:34;;;;;;;18.53;13.93;;;;;;;14.84;77.79;99596.41;5057070;28;20173;-87
2022/05/01 06:53:59;;;;;;;17.53;13.27;;;;;;;13.45;77.29;99325.66;5054614;28;20229;-88
2022/05/01 06:56:24;;;;;;;18.97;13.63;;;;;;;14.11;75.33;99358.22;5046067;28;20166;-88
2022/05/01 06:58:50;;;;;;;17.40;13.17;;;;;;;15.12;74.04;99489.31;5040854;28;20173;-88
2022/05/01 07:01:15;;;;;;;21.83;13.37;;;;;;;14.74;72.10;99379.53;5041117;28;20173;-88
2022/05/01 07:03:42;;;;;;;17.67;13.50;;;;;;;15.59;70.46;99457.41;5047554;28;20232;-89
2022/05/01 07:06:07;;;;;;;15.03;11.67;;;;;;;15.86;69.07;99550.84;5041338;28;20203;-87
2022/05/01 07:08:33;;;;;;;15.13;11.60;;;;;;;17.80;66.98;99794.94;5041929;28;20626;-90
2022/05/01 07:10:58;;;;;;;13.37;10.70;;;;;;;15.21;65.85;99357.81;5040858;28;20247;-89
2022/05/01 07:13:23;;;;;;;15.43;11.83;;;;;;;15.37;65.38;99346.28;5039939;28;20244;-88
2022/05/01 07:15:50;;;;;;;15.30;11.00;;;;;;;14.56;66.01;99264.38;5043905;28;20232;-89
2022/05/01 07:18:15;;;;;;;16.27;11.70;;;;;;;15.03;68.71;99483.94;5041018;28;20165;-88
2022/05/01 07:20:41;;;;;;;13.93;9.83;;;;;;;14.21;66.91;99308.41;5040483;28;20177;-89
2022/05/01 07:23:06;;;;;;;13.37;10.60;;;;;;;15.26;69.56;99490.53;5042096;28;20172;-88
2022/05/01 07:25:32;;;;;;;13.43;10.70;;;;;;;17.38;69.08;99828.09;5040183;28;20215;-88
2022/05/01 07:27:58;;;;;;;12.67;10.43;;;;;;;16.66;67.53;99649.06;5058368;28;20207;-88
2022/05/01 07:30:23;;;;;;;14.47;10.00;;;;;;;15.06;67.40;99389.69;5038906;28;20543;-88
2022/05/01 07:32:49;;;;;;;13.53;9.63;;;;;;;15.02;66.74;99437.22;5036227;28;20179;-87
2022/05/01 07:35:14;;;;;;;11.90;9.50;;;;;;;15.73;65.97;99502.00;5036259;28;20543;-88
2022/05/01 07:37:39;;;;;;;10.77;9.00;;;;;;;16.30;63.91;99503.38;5036665;28;20231;-88
2022/05/01 07:40:05;;;;;;;11.23;9.40;;;;;;;17.69;63.17;99739.22;5053971;28;20172;-86
2022/05/01 07:42:31;;;;;;;11.50;8.97;;;;;;;17.86;61.05;99739.56;5035971;28;20265;-87
2022/05/01 07:44:56;;;;;;;13.23;9.23;;;;;;;17.24;62.35;99693.84;5053782;28;20651;-87
2022/05/01 07:47:21;;;;;;;14.00;9.97;;;;;;;16.51;62.06;99554.06;5053935;28;20170;-87
2022/05/01 07:49:47;;;;;;;13.20;10.20;;;;;;;17.79;60.04;99686.50;5036047;28;20280;-87
2022/05/01 07:52:13;;;;;;;12.60;9.97;;;;;;;19.00;59.44;99852.84;5035887;28;20247;-90
2022/05/01 07:54:38;;;;;;;12.10;10.17;;;;;;;18.31;58.74;99664.38;5053947;28;20720;-87
2022/05/01 07:57:04;;;;;;;14.33;10.60;;;;;;;18.52;55.81;99677.56;5054549;28;20215;-87
2022/05/01 07:59:29;;;;;;;10.63;8.50;;;;;;;18.35;55.97;99561.06;5035845;28;20200;-87
2022/05/01 08:01:55;;;;;;;11.37;8.60;;;;;;;19.11;55.29;99717.84;5053538;28;20173;-88
2022/05/01 08:04:29;;;;;;;11.83;8.43;;;;;;;18.41;53.54;99553.44;5053883;28;20208;-87
2022/05/01 08:06:59;;;;;;;11.43;8.37;;;;;;;19.57;51.75;99683.41;5052174;28;20269;-86
2022/05/01 08:09:26;;;;;;;9.83;8.67;;;;;;;20.59;52.21;99838.00;5052979;28;20523;-86
2022/05/01 08:11:51;;;;;;;11.60;8.40;;;;;;;19.66;51.62;99675.84;5052845;28;20649;-86
2022/05/01 08:14:17;;;;;;;11.70;8.93;;;;;;;18.53;51.25;99515.22;5052910;28;20169;-87
2022/05/01 08:16:43;;;;;;;10.80;8.70;;;;;;;20.16;50.08;99784.31;5036354;28;20217;-86
2022/05/01 08:21:52;;;;;;;9.87;7.87;;;;;;;20.00;48.54;99695.03;5053596;28;20706;-88
2022/05/01 08:24:19;;;;;;;10.73;7.70;;;;;;;20.05;47.23;99697.66;5035092;28;20209;-84
2022/05/01 08:26:48;;;;;;;10.17;8.07;;;;;;;18.82;48.80;99591.69;5053325;28;20176;-86
2022/05/01 08:29:14;;;;;;;9.40;7.70;;;;;;;19.41;48.47;99643.84;5053748;28;20610;-86
2022/05/01 08:31:42;;;;;;;11.53;8.00;;;;;;;19.11;47.62;99558.72;5034880;28;20181;-86
2022/05/01 08:34:08;;;;;;;10.07;7.40;;;;;;;20.05;46.96;99648.84;5052975;28;20166;-86
2022/05/01 08:36:33;;;;;;;11.03;6.80;;;;;;;20.01;45.28;99593.97;5053155;28;20169;-88
2022/05/01 08:38:59;;;;;;;10.27;7.67;;;;;;;20.05;45.03;99615.41;5024229;28;20721;-87
2022/05/01 08:41:29;;;;;;;9.40;6.60;;;;;;;20.80;44.23;99785.00;5053192;28;20173;-88
2022/05/01 08:43:56;;;;;;;9.20;6.63;;;;;;;20.88;44.28;99819.41;5052682;28;20241;-86
2022/05/01 08:46:36;;;;;;;15.60;10.27;;;;;;;21.37;42.67;99823.28;5053885;28;20173;-87
2022/05/01 08:49:10;;;;;;;8.17;5.10;;;;;;;19.85;41.13;99571.53;5052551;28;20601;-86
2022/05/01 08:51:40;;;;;;;6.83;5.03;;;;;;;21.11;40.65;99823.94;5065402;28;20185;-86
2022/05/01 08:54:08;;;;;;;8.73;6.00;;;;;;;20.07;41.36;99649.69;5035123;28;20179;-87
2022/05/01 08:56:35;;;;;;;9.60;5.80;;;;;;;21.16;40.75;99827.41;5052786;28;20658;-87
2022/05/01 08:59:07;;;;;;;7.83;5.53;;;;;;;19.62;40.07;99483.13;5034079;28;20181;-88
2022/05/01 09:01:33;;;;;;;6.13;3.93;;;;;;;20.94;38.06;99770.53;5052879;28;20161;-88
2022/05/01 09:04:00;;;;;;;6.00;4.40;;;;;;;21.30;38.84;99788.03;5034985;28;20298;-87
2022/05/01 09:06:26;;;;;;;7.00;5.70;;;;;;;20.83;41.93;99746.44;5052652;28;20215;-88
2022/05/01 09:08:51;;;;;;;6.90;6.10;;;;;;;19.55;42.87;99468.50;5034322;28;20180;-87
2022/05/01 09:14:06;;;;;;;6.27;5.40;;;;;;;19.04;43.03;99581.72;5053103;28;20261;-87
2022/05/01 09:16:35;;;;;;;6.00;4.60;;;;;;;20.67;41.10;99789.19;5061576;28;20229;-86
2022/05/01 09:19:01;;;;;;;5.57;3.50;;;;;;;19.79;37.05;99527.81;5059016;28;20178;-86
2022/05/01 09:21:47;;;;;;;4.80;3.30;;;;;;;20.59;34.53;99579.88;5036878;28;20177;-88
2022/05/01 09:24:12;;;;;;;4.63;3.67;;;;;;;21.06;35.87;99671.13;5041578;28;20692;-88
2022/05/01 09:26:38;;;;;;;6.80;3.70;;;;;;;21.24;35.97;99665.22;5054561;28;20173;-86
2022/05/01 09:29:03;;;;;;;4.73;3.90;;;;;;;20.89;35.28;99558.59;5034196;28;20228;-88
2022/05/01 09:31:48;;;;;;;6.03;3.70;;;;;;;20.69;35.85;99544.75;5035103;28;20538;-87
2022/05/01 09:34:21;;;;;;;7.00;4.57;;;;;;;20.67;36.74;99489.88;5035550;28;20260;-88
2022/05/01 09:36:47;;;;;;;5.37;4.20;;;;;;;22.24;37.19;99771.34;5036531;28;20180;-86
2022/05/01 09:39:21;;;;;;;3.67;3.00;;;;;;;21.12;34.44;99662.59;5036585;28;20548;-86
2022/05/01 09:41:48;;;;;;;6.27;3.40;;;;;;;19.50;34.98;99458.22;5036822;28;20229;-87
2022/05/01 09:44:19;;;;;;;4.10;3.20;;;;;;;19.10;34.68;99340.56;5036345;28;20661;-87
2022/05/01 09:46:46;;;;;;;5.03;3.17;;;;;;;19.85;35.36;99499.59;5038265;28;20238;-87
2022/05/01 09:49:17;;;;;;;5.10;3.60;;;;;;;20.78;36.22;99691.50;5055833;28;20170;-88
2022/05/01 09:52:02;;;;;;;5.03;3.60;;;;;;;19.92;36.79;99547.59;5035802;28;20315;-86
2022/05/01 09:54:28;;;;;;;4.60;3.50;;;;;;;19.90;35.84;99462.81;5034719;28;20276;-86
2022/05/01 09:56:57;;;;;;;7.70;3.93;;;;;;;19.65;35.65;99465.16;5053725;28;20208;-87
2022/05/01 09:59:24;;;;;;;6.63;3.60;;;;;;;21.59;34.05;99716.94;5034420;28;20173;-88
2022/05/01 10:02:02;;;;;;;4.20;3.30;;;;;;;19.06;35.49;99365.34;5034256;28;20597;-85
2022/05/01 10:04:28;;;;;;;4.67;3.10;;;;;;;20.77;34.63;99620.28;5034130;28;20249;-86
2022/05/01 10:06:55;;;;;;;4.27;3.27;;;;;;;19.83;34.99;99503.88;5034742;28;20559;-86
2022/05/01 10:09:23;;;;;;;5.33;3.10;;;;;;;21.38;34.09;99709.94;5035931;28;20711;-87
2022/05/01 10:11:53;;;;;;;4.33;3.20;;;;;;;19.23;34.46;99266.22;5034342;28;20625;-87
2022/05/01 10:14:23;;;;;;;5.70;3.80;;;;;;;22.21;34.51;99722.31;5052098;28;20173;-87
2022/05/01 10:16:50;;;;;;;5.00;3.77;;;;;;;21.68;36.02;99706.63;5053059;28;20184;-87
2022/05/01 10:19:19;;;;;;;10.37;3.87;;;;;;;20.78;36.08;99525.09;5035468;28;20178;-87
2022/05/01 10:21:49;;;;;;;4.27;3.47;;;;;;;20.89;35.86;99469.38;5034149;28;20169;-87
2022/05/01 10:24:15;;;;;;;3.80;2.97;;;;;;;22.30;31.80;99717.19;5051843;28;20231;-87
2022/05/01 10:26:56;;;;;;;4.93;3.47;;;;;;;21.87;33.51;99705.88;5052244;28;20176;-88
2022/05/01 10:33:19;;;;;;;5.00;3.30;;;;;;;21.59;34.55;99689.41;5056501;28;20208;-86
2022/05/01 10:35:59;;;;;;;3.90;3.50;;;;;;;21.70;35.41;99687.75;5038603;28;20184;-87
2022/05/01 10:38:50;;;;;;;4.37;3.43;;;;;;;21.34;36.93;99687.63;5040052;28;20175;-88
2022/05/01 10:41:16;;;;;;;4.13;3.20;;;;;;;20.80;36.17;99540.53;5039918;28;20177;-87
2022/05/01 10:43:54;;;;;;;9.93;3.93;;;;;;;21.82;35.76;99678.34;5057640;28;20228;-87
2022/05/01 10:46:19;;;;;;;7.97;3.90;;;;;;;22.05;35.13;99669.84;5057444;28;20181;-87
2022/05/01 10:48:45;;;;;;;22.87;4.80;;;;;;;20.12;35.29;99371.28;5038840;28;20177;-86
2022/05/01 10:51:36;;;;;;;18.10;3.97;;;;;;;21.63;35.00;99665.41;5056646;28;20239;-86
2022/05/01 10:54:10;;;;;;;5.40;3.30;;;;;;;21.73;35.01;99662.00;5056029;28;20172;-87
2022/05/01 10:56:41;;;;;;;7.17;4.00;;;;;;;21.01;35.71;99515.72;5043001;28;20168;-87
2022/05/01 10:59:34;;;;;;;20.87;4.10;;;;;;;21.92;33.96;99656.94;5043488;28;20177;-87
2022/05/01 11:02:01;;;;;;;9.30;3.43;;;;;;;22.04;33.12;99659.53;5036772;28;20165;-86
2022/05/01 11:04:44;;;;;;;5.10;3.07;;;;;;;21.28;33.72;99543.34;5055313;28;20185;-86
2022/05/01 11:07:13;;;;;;;3.13;2.83;;;;;;;21.57;32.90;99556.28;5055902;28;20181;-87
2022/05/01 11:09:41;;;;;;;3.40;2.90;;;;;;;21.78;33.65;99619.03;5056958;28;20238;-86
2022/05/01 11:12:08;;;;;;;3.77;3.20;;;;;;;21.71;33.91;99637.06;5056595;28;20165;-88
2022/05/01 11:15:00;;;;;;;4.40;3.40;;;;;;;21.56;35.11;99637.03;5058842;28;20170;-89
2022/05/01 11:17:42;;;;;;;4.33;3.00;;;;;;;21.64;34.55;99646.53;5053311;28;20185;-88
2022/05/01 11:20:29;;;;;;;16.63;4.20;;;;;;;21.85;35.15;99645.69;5056075;28;20256;-88
2022/05/01 11:22:55;;;;;;;6.10;3.10;;;;;;;20.63;34.69;99519.03;5037455;28;20615;-88
2022/05/01 11:25:40;;;;;;;4.63;3.23;;;;;;;21.47;35.21;99648.16;5037316;28;20221;-88
2022/05/01 11:28:06;;;;;;;5.60;3.63;;;;;;;20.97;33.78;99425.63;5039732;28;20164;-88
2022/05/01 11:30:32;;;;;;;4.80;3.10;;;;;;;22.87;32.49;99633.75;5056005;28;20162;-89
2022/05/01 11:33:11;;;;;;;4.90;3.73;;;;;;;22.98;32.51;99631.13;5036889;28;20649;-90
2022/05/01 11:35:55;;;;;;;3.93;3.10;;;;;;;23.54;31.38;99643.91;5037406;28;20166;-88
2022/05/01 11:38:31;;;;;;;4.40;3.07;;;;;;;23.18;29.95;99476.97;5036895;28;20613;-87
2022/05/01 11:40:59;;;;;;;3.50;3.20;;;;;;;23.91;30.08;99549.72;5055409;28;20161;-87
2022/05/01 11:43:28;;;;;;;6.75;4.63;;;;;;;24.16;30.26;99630.63;5039559;28;20203;-87
2022/05/01 11:45:55;;;;;;;4.10;3.00;;;;;;;24.12;28.76;99489.25;5040757;28;20198;-87
2022/05/01 11:48:21;;;;;;;4.95;3.00;;;;;;;24.18;28.67;99471.91;5057381;28;20645;-88
2022/05/01 11:50:50;;;;;;;6.72;2.72;;;;;;;24.21;28.78;99442.56;5037789;28;20642;-87
2022/05/01 11:53:17;;;;;;;3.25;2.92;;;;;;;23.63;30.40;99623.16;5039620;28;20200;-87